createdAt,value
2022-09-04T00:02:27.053Z,67.55
2022-09-04T00:05:30.257Z,67.25
2022-09-04T00:08:11.820Z,66.62
2022-09-04T00:10:45.987Z,66.62
2022-09-04T00:13:21.513Z,66.44
2022-09-04T00:15:57.277Z,66.50
2022-09-04T00:18:35.443Z,66.65
2022-09-04T00:21:14.347Z,66.54
2022-09-04T00:23:49.768Z,66.60
2022-09-04T00:26:44.350Z,66.58
2022-09-04T00:29:27.368Z,66.83
2022-09-04T00:32:03.569Z,66.67
2022-09-04T00:34:48.455Z,66.77
2022-09-04T00:37:21.200Z,67.08
2022-09-04T00:39:57.709Z,67.35
2022-09-04T00:42:40.789Z,67.28
2022-09-04T00:45:16.732Z,67.38
2022-09-04T00:48:08.293Z,67.36
2022-09-04T00:50:42.456Z,67.42
2022-09-04T00:53:21.657Z,67.42
2022-09-04T00:56:07.120Z,67.51
2022-09-04T00:58:51.296Z,67.64
2022-09-04T01:01:27.987Z,67.51
2022-09-04T01:04:00.302Z,67.60
2022-09-04T01:06:46.590Z,67.37
2022-09-04T01:09:24.886Z,67.22
2022-09-04T01:12:08.035Z,67.23
2022-09-04T01:14:53.112Z,67.26
2022-09-04T01:17:36.153Z,67.31
2022-09-04T01:20:40.792Z,67.47
2022-09-04T01:23:36.647Z,67.14
2022-09-04T01:26:16.113Z,67.15
2022-09-04T01:28:48.262Z,67.39
2022-09-04T01:31:23.828Z,67.40
2022-09-04T01:34:17.762Z,67.22
2022-09-04T01:36:50.264Z,67.41
2022-09-04T01:39:19.279Z,67.44
2022-09-04T01:41:54.101Z,67.60
2022-09-04T01:44:20.673Z,67.54
2022-09-04T01:47:04.472Z,67.37
2022-09-04T01:49:46.225Z,67.51
2022-09-04T01:52:18.639Z,67.24
2022-09-04T01:55:12.643Z,67.34
2022-09-04T01:58:17.044Z,67.20
2022-09-04T02:01:11.100Z,66.98
2022-09-04T02:04:00.569Z,66.78
2022-09-04T02:06:43.723Z,66.31
2022-09-04T02:09:10.937Z,66.42
2022-09-04T02:11:42.319Z,66.18
2022-09-04T02:14:40.146Z,65.99
2022-09-04T02:17:36.251Z,65.93
2022-09-04T02:20:17.815Z,65.84
2022-09-04T02:23:17.098Z,65.99
2022-09-04T02:25:56.085Z,65.83
2022-09-04T02:28:32.049Z,65.86
2022-09-04T02:31:05.776Z,66.16
2022-09-04T02:33:38.301Z,66.27
2022-09-04T02:36:07.937Z,66.04
2022-09-04T02:38:46.639Z,65.69
2022-09-04T02:41:39.816Z,65.82
2022-09-04T02:44:19.096Z,65.59
2022-09-04T02:47:07.341Z,65.48
2022-09-04T02:49:55.458Z,65.38
2022-09-04T02:52:40.831Z,65.53
2022-09-04T02:55:45.806Z,65.41
2022-09-04T02:58:25.946Z,65.33
2022-09-04T03:01:43.623Z,65.53
2022-09-04T03:04:17.801Z,66.14
2022-09-04T03:06:50.614Z,66.20
2022-09-04T03:09:40.107Z,66.14
2022-09-04T03:12:36.134Z,66.22
2022-09-04T03:15:45.400Z,66.31
2022-09-04T03:18:17.122Z,66.19
2022-09-04T03:20:49.851Z,66.32
2022-09-04T03:23:35.352Z,66.31
2022-09-04T03:26:11.977Z,66.14
2022-09-04T03:28:56.528Z,66.12
2022-09-04T03:31:33.572Z,65.91
2022-09-04T03:34:03.203Z,66.06
2022-09-04T03:36:43.715Z,65.82
2022-09-04T03:39:18.479Z,66.01
2022-09-04T03:42:26.079Z,65.95
2022-09-04T03:45:08.803Z,65.96
2022-09-04T03:47:48.689Z,66.14
2022-09-04T03:50:26.509Z,66.31
2022-09-04T03:53:13.251Z,66.00
2022-09-04T03:56:01.475Z,66.07
2022-09-04T03:58:38.209Z,65.99
2022-09-04T04:01:34.283Z,65.90
2022-09-04T04:04:34.413Z,65.90
2022-09-04T04:07:22.162Z,66.03
2022-09-04T04:10:03.847Z,66.11
2022-09-04T04:12:34.917Z,66.25
2022-09-04T04:15:42.139Z,66.19
2022-09-04T04:18:13.397Z,66.41
2022-09-04T04:20:58.172Z,66.74
2022-09-04T04:24:06.264Z,66.52
2022-09-04T04:26:54.721Z,66.41
2022-09-04T04:29:38.850Z,66.42
2022-09-04T04:32:26.916Z,66.42
2022-09-04T04:35:16.860Z,66.40
2022-09-04T04:38:20.305Z,66.34
2022-09-04T04:41:14.637Z,66.39
2022-09-04T04:43:49.775Z,66.21
2022-09-04T04:46:42.991Z,66.20
2022-09-04T04:49:22.543Z,66.05
2022-09-04T04:52:08.870Z,66.15
2022-09-04T04:54:54.181Z,66.09
2022-09-04T04:57:26.886Z,66.02
2022-09-04T05:00:27.389Z,66.01
2022-09-04T05:03:16.215Z,65.92
2022-09-04T05:05:55.229Z,65.84
2022-09-04T05:08:57.076Z,65.93
2022-09-04T05:11:59.189Z,65.74
2022-09-04T05:14:50.199Z,65.71
2022-09-04T05:17:25.073Z,65.91
2022-09-04T05:20:03.829Z,65.95
2022-09-04T05:22:46.396Z,65.96
2022-09-04T05:25:29.565Z,66.08
2022-09-04T05:28:17.333Z,65.82
2022-09-04T05:30:51.010Z,66.05
2022-09-04T05:33:29.800Z,65.76
2022-09-04T05:36:20.541Z,65.75
2022-09-04T05:39:00.381Z,65.70
2022-09-04T05:41:39.179Z,65.72
2022-09-04T05:44:36.981Z,65.73
2022-09-04T05:47:30.667Z,65.60
2022-09-04T05:50:26.422Z,65.30
2022-09-04T05:53:00.108Z,65.35
2022-09-04T05:55:31.970Z,65.15
2022-09-04T05:58:17.653Z,65.17
2022-09-04T06:00:53.262Z,65.36
2022-09-04T06:03:26.912Z,65.33
2022-09-04T06:06:22.824Z,65.09
2022-09-04T06:09:10.439Z,65.10
2022-09-04T06:11:45.614Z,65.41
2022-09-04T06:14:50.047Z,65.29
2022-09-04T06:17:32.787Z,65.23
2022-09-04T06:20:24.020Z,65.32
2022-09-04T06:23:03.250Z,65.18
2022-09-04T06:25:48.548Z,65.33
2022-09-04T06:28:22.637Z,65.35
2022-09-04T06:31:12.282Z,65.17
2022-09-04T06:34:00.504Z,65.15
2022-09-04T06:36:45.417Z,65.06
2022-09-04T06:39:35.206Z,65.23
2022-09-04T06:42:07.731Z,65.26
2022-09-04T06:45:20.897Z,65.12
2022-09-04T06:47:51.360Z,65.08
2022-09-04T06:50:46.775Z,64.68
2022-09-04T06:53:58.400Z,64.55
2022-09-04T06:56:31.314Z,64.34
2022-09-04T06:59:11.633Z,64.32
2022-09-04T07:02:02.966Z,63.96
2022-09-04T07:04:44.553Z,63.72
2022-09-04T07:07:24.575Z,63.35
2022-09-04T07:10:01.730Z,63.29
2022-09-04T07:12:37.575Z,63.29
2022-09-04T07:15:30.586Z,63.42
2022-09-04T07:18:03.217Z,63.46
2022-09-04T07:20:59.673Z,63.34
2022-09-04T07:23:48.059Z,63.30
2022-09-04T07:26:26.576Z,63.14
2022-09-04T07:29:23.782Z,63.00
2022-09-04T07:32:08.595Z,63.01
2022-09-04T07:34:46.618Z,63.19
2022-09-04T07:37:31.560Z,63.10
2022-09-04T07:40:08.281Z,63.12
2022-09-04T07:42:44.641Z,63.13
2022-09-04T07:45:22.369Z,63.06
2022-09-04T07:48:18.256Z,62.96
2022-09-04T07:51:03.753Z,63.36
2022-09-04T07:53:51.913Z,63.34
2022-09-04T07:56:54.858Z,62.98
2022-09-04T07:59:31.187Z,63.07
2022-09-04T08:02:09.719Z,62.48
2022-09-04T08:05:01.037Z,62.44
2022-09-04T08:07:33.596Z,61.76
2022-09-04T08:10:27.808Z,61.64
2022-09-04T08:13:14.072Z,61.66
2022-09-04T08:16:07.154Z,61.47
2022-09-04T08:19:01.497Z,60.97
2022-09-04T08:21:31.004Z,60.87
2022-09-04T08:24:35.064Z,60.38
2022-09-04T08:27:18.822Z,60.42
2022-09-04T08:29:48.109Z,60.36
2022-09-04T08:32:21.069Z,60.19
2022-09-04T08:35:21.541Z,60.27
2022-09-04T08:37:57.173Z,59.90
2022-09-04T08:40:26.581Z,59.88
2022-09-04T08:43:11.352Z,59.96
2022-09-04T08:46:16.820Z,59.38
2022-09-04T08:49:02.453Z,58.99
2022-09-04T08:51:42.858Z,58.97
2022-09-04T08:54:12.415Z,58.75
2022-09-04T08:56:50.139Z,58.65
2022-09-04T08:59:38.513Z,58.80
2022-09-04T09:02:13.952Z,58.43
2022-09-04T09:05:15.991Z,58.65
2022-09-04T09:08:16.241Z,58.56
2022-09-04T09:11:07.864Z,58.44
2022-09-04T09:13:50.898Z,58.25
2022-09-04T09:16:56.176Z,58.33
2022-09-04T09:19:56.823Z,58.05
2022-09-04T09:23:10.801Z,57.96
2022-09-04T09:26:06.577Z,58.06
2022-09-04T09:29:14.506Z,57.90
2022-09-04T09:31:53.170Z,58.06
2022-09-04T09:34:35.856Z,58.00
2022-09-04T09:37:08.683Z,58.17
2022-09-04T09:40:14.048Z,58.18
2022-09-04T09:42:59.976Z,58.05
2022-09-04T09:45:57.037Z,58.08
2022-09-04T09:49:05.188Z,57.74
2022-09-04T09:51:41.641Z,58.14
2022-09-04T09:54:30.021Z,57.76
2022-09-04T09:57:33.218Z,57.56
2022-09-04T10:00:18.180Z,57.79
2022-09-04T10:03:14.081Z,57.64
2022-09-04T10:06:15.067Z,57.51
2022-09-04T10:09:12.245Z,57.71
2022-09-04T10:11:41.740Z,57.64
2022-09-04T10:14:53.945Z,57.85
2022-09-04T10:17:42.263Z,57.45
2022-09-04T10:20:35.312Z,57.61
2022-09-04T10:23:16.412Z,57.28
2022-09-04T10:25:54.971Z,57.14
2022-09-04T10:28:40.816Z,57.01
2022-09-04T10:31:42.718Z,57.20
2022-09-04T10:34:54.388Z,57.21
2022-09-04T10:37:23.920Z,57.62
2022-09-04T10:40:30.854Z,57.29
2022-09-04T10:43:35.024Z,57.22
2022-09-04T10:46:23.201Z,57.22
2022-09-04T10:49:14.739Z,57.07
2022-09-04T10:52:20.123Z,57.11
2022-09-04T10:55:18.834Z,56.64
2022-09-04T10:58:10.668Z,56.66
2022-09-04T11:01:03.392Z,56.61
2022-09-04T11:03:45.804Z,56.63
2022-09-04T11:06:30.653Z,56.60
2022-09-04T11:09:09.641Z,56.74
2022-09-04T11:11:52.839Z,56.74
2022-09-04T11:14:45.493Z,56.50
2022-09-04T11:17:21.072Z,56.36
2022-09-04T11:20:25.036Z,56.13
2022-09-04T11:22:54.726Z,56.00
2022-09-04T11:26:05.772Z,55.98
2022-09-04T11:28:47.794Z,56.17
2022-09-04T11:31:32.581Z,56.09
2022-09-04T11:34:34.702Z,55.56
2022-09-04T11:37:22.614Z,55.30
2022-09-04T11:40:08.920Z,55.37
2022-09-04T11:42:45.511Z,55.06
2022-09-04T11:45:44.549Z,55.00
2022-09-04T11:48:26.460Z,55.07
2022-09-04T11:51:40.556Z,55.08
2022-09-04T11:54:40.778Z,55.16
2022-09-04T11:57:16.272Z,55.13
2022-09-04T12:00:06.031Z,55.21
2022-09-04T12:02:42.004Z,55.48
2022-09-04T12:05:39.724Z,55.79
2022-09-04T12:08:18.133Z,55.93
2022-09-04T12:10:53.040Z,56.04
2022-09-04T12:13:48.905Z,56.02
2022-09-04T12:16:34.954Z,56.22
2022-09-04T12:19:21.264Z,56.04
2022-09-04T12:22:36.366Z,56.01
2022-09-04T12:25:17.671Z,56.13
2022-09-04T12:28:17.003Z,56.28
2022-09-04T12:31:01.690Z,56.32
2022-09-04T12:33:37.075Z,56.18
2022-09-04T12:36:42.170Z,56.32
2022-09-04T12:39:41.889Z,56.42
2022-09-04T12:42:29.965Z,56.47
2022-09-04T12:45:15.192Z,56.26
2022-09-04T12:48:22.853Z,56.22
2022-09-04T12:50:55.628Z,56.48
2022-09-04T12:53:33.371Z,56.34
2022-09-04T12:56:03.208Z,56.35
2022-09-04T12:58:33.918Z,56.27
2022-09-04T13:01:00.550Z,56.33
2022-09-04T13:03:58.919Z,56.29
2022-09-04T13:06:53.406Z,56.53
2022-09-04T13:09:58.957Z,56.30
2022-09-04T13:12:37.417Z,56.34
2022-09-04T13:15:45.093Z,56.44
2022-09-04T13:18:26.646Z,56.34
2022-09-04T13:20:58.106Z,56.28
2022-09-04T13:23:38.962Z,56.37
2022-09-04T13:26:29.756Z,56.39
2022-09-04T13:29:16.907Z,56.52
2022-09-04T13:31:50.300Z,56.46
2022-09-04T13:34:37.305Z,56.32
2022-09-04T13:37:23.437Z,56.30
2022-09-04T13:40:01.908Z,56.43
2022-09-04T13:43:05.244Z,56.80
2022-09-04T13:45:40.810Z,56.53
2022-09-04T13:48:13.419Z,56.65
2022-09-04T13:51:13.680Z,56.66
2022-09-04T13:53:52.893Z,56.92
2022-09-04T13:56:26.416Z,56.58
2022-09-04T13:58:58.413Z,56.74
2022-09-04T14:01:29.622Z,56.83
2022-09-04T14:04:04.765Z,56.82
2022-09-04T14:06:32.586Z,56.97
2022-09-04T14:09:05.520Z,56.71
2022-09-04T14:12:01.192Z,56.90
2022-09-04T14:14:48.534Z,56.86
2022-09-04T14:17:27.139Z,56.80
2022-09-04T14:20:34.443Z,56.89
2022-09-04T14:23:12.712Z,56.83
2022-09-04T14:26:13.563Z,56.79
2022-09-04T14:28:52.235Z,56.99
2022-09-04T14:31:38.449Z,56.96
2022-09-04T14:34:42.707Z,57.05
2022-09-04T14:37:24.407Z,57.22
2022-09-04T14:40:03.633Z,57.11
2022-09-04T14:42:58.100Z,56.99
2022-09-04T14:45:32.566Z,57.23
2022-09-04T14:48:03.756Z,57.35
2022-09-04T14:50:31.038Z,57.56
2022-09-04T14:53:06.497Z,57.34
2022-09-04T14:55:35.229Z,57.31
2022-09-04T14:58:19.797Z,57.50
2022-09-04T15:00:57.224Z,57.73
2022-09-04T15:03:55.877Z,57.86
2022-09-04T15:07:12.361Z,58.07
2022-09-04T15:09:48.456Z,57.90
2022-09-04T15:12:25.987Z,57.72
2022-09-04T15:14:59.154Z,57.81
2022-09-04T15:17:28.773Z,57.72
2022-09-04T15:20:00.281Z,57.72
2022-09-04T15:22:47.599Z,57.79
2022-09-04T15:25:18.263Z,58.12
2022-09-04T15:28:01.505Z,58.37
2022-09-04T15:30:39.731Z,58.32
2022-09-04T15:33:12.624Z,58.16
2022-09-04T15:35:40.704Z,58.20
2022-09-04T15:38:25.347Z,58.38
2022-09-04T15:41:15.589Z,58.23
2022-09-04T15:43:51.752Z,58.07
2022-09-04T15:46:25.181Z,58.11
2022-09-04T15:49:00.098Z,58.33
2022-09-04T15:51:50.237Z,58.49
2022-09-04T15:54:22.699Z,58.49
2022-09-04T15:56:52.224Z,58.26
2022-09-04T15:59:23.853Z,58.09
2022-09-04T16:02:13.333Z,58.18
2022-09-04T16:04:44.922Z,58.37
2022-09-04T16:07:20.402Z,58.08
2022-09-04T16:09:51.834Z,58.35
2022-09-04T16:12:30.751Z,58.40
2022-09-04T16:15:03.363Z,58.47
2022-09-04T16:17:32.599Z,58.53
2022-09-04T16:20:11.722Z,58.49
2022-09-04T16:22:43.865Z,58.39
2022-09-04T16:25:23.562Z,58.86
2022-09-04T16:28:02.431Z,58.94
2022-09-04T16:30:33.520Z,58.94
2022-09-04T16:33:00.636Z,58.83
2022-09-04T16:35:28.874Z,58.91
2022-09-04T16:38:40.840Z,59.05
2022-09-04T16:41:25.628Z,58.82
2022-09-04T16:44:11.110Z,58.59
2022-09-04T16:46:40.121Z,58.98
2022-09-04T16:49:19.744Z,58.95
2022-09-04T16:51:57.940Z,58.78
2022-09-04T16:54:37.499Z,58.81
2022-09-04T16:57:14.850Z,58.82
2022-09-04T16:59:43.553Z,58.35
2022-09-04T17:02:36.345Z,58.31
2022-09-04T17:05:35.274Z,58.10
2022-09-04T17:08:27.210Z,57.91
2022-09-04T17:11:14.725Z,58.12
2022-09-04T17:13:59.190Z,57.84
2022-09-04T17:16:52.523Z,57.95
2022-09-04T17:19:19.483Z,57.96
2022-09-04T17:28:59.337Z,58.64
2022-09-04T17:29:02.054Z,58.09
2022-09-04T17:29:17.347Z,58.79
2022-09-04T17:31:13.602Z,59.21
2022-09-04T17:40:16.399Z,58.88
2022-09-04T17:40:51.462Z,59.54
2022-09-04T17:40:54.608Z,59.07
2022-09-04T17:43:22.074Z,59.64
2022-09-04T17:45:59.447Z,59.70
2022-09-04T17:48:41.319Z,59.59
2022-09-04T17:51:15.825Z,59.82
2022-09-04T17:53:47.476Z,59.77
2022-09-04T17:56:20.612Z,59.73
2022-09-04T17:59:11.882Z,60.00
2022-09-04T18:01:51.977Z,59.80
2022-09-04T18:04:22.571Z,59.96
2022-09-04T18:06:58.400Z,59.75
2022-09-04T18:09:32.058Z,59.86
2022-09-04T18:12:11.401Z,59.85
2022-09-04T18:14:43.024Z,59.91
2022-09-04T18:17:20.127Z,59.96
2022-09-04T18:20:17.349Z,60.10
2022-09-04T18:23:06.209Z,59.68
2022-09-04T18:25:51.177Z,60.03
2022-09-04T18:28:27.219Z,60.17
2022-09-04T18:37:12.112Z,59.80
2022-09-04T18:37:25.652Z,60.08
2022-09-04T18:37:44.068Z,60.15
2022-09-04T18:41:12.835Z,60.35
2022-09-04T18:50:23.054Z,60.13
2022-09-04T18:50:30.654Z,60.46
2022-09-04T18:51:06.965Z,60.67
2022-09-04T18:52:00.530Z,60.57
2022-09-04T18:54:39.597Z,60.70
2022-09-04T18:57:20.515Z,60.16
2022-09-04T18:59:53.742Z,60.19
2022-09-04T19:02:42.428Z,60.11
2022-09-04T19:05:18.249Z,60.35
2022-09-04T19:07:47.977Z,60.47
2022-09-04T19:10:20.654Z,60.40
2022-09-04T19:12:50.142Z,60.86
2022-09-04T19:15:51.915Z,60.54
2022-09-04T19:18:41.548Z,61.07
2022-09-04T19:21:08.115Z,60.98
2022-09-04T19:23:40.930Z,60.58
2022-09-04T19:26:18.049Z,61.02
2022-09-04T19:28:53.228Z,60.55
2022-09-04T19:31:29.965Z,60.63
2022-09-04T19:33:59.485Z,61.14
2022-09-04T19:36:37.293Z,60.87
2022-09-04T19:44:55.104Z,61.37
2022-09-04T19:46:00.638Z,61.35
2022-09-04T19:46:13.432Z,60.99
2022-09-04T19:48:20.965Z,61.38
2022-09-04T19:53:21.496Z,61.48
2022-09-04T19:53:52.874Z,61.48
2022-09-04T19:56:30.872Z,61.32
2022-09-04T19:59:23.199Z,61.52
2022-09-04T20:02:02.881Z,61.14
2022-09-04T20:04:41.788Z,61.17
2022-09-04T20:07:11.192Z,61.26
2022-09-04T20:09:51.825Z,61.09
2022-09-04T20:12:44.191Z,61.59
2022-09-04T20:15:22.259Z,61.14
2022-09-04T20:18:08.574Z,61.40
2022-09-04T20:20:46.468Z,61.13
2022-09-04T20:23:34.904Z,61.34
2022-09-04T20:26:25.802Z,61.33
2022-09-04T20:29:08.461Z,61.26
2022-09-04T20:31:45.646Z,61.47
2022-09-04T20:34:20.815Z,61.22
2022-09-04T20:36:54.121Z,61.62
2022-09-04T20:39:28.324Z,61.73
2022-09-04T20:42:02.265Z,61.70
2022-09-04T20:46:28.387Z,61.62
2022-09-04T20:52:49.921Z,61.91
2022-09-04T20:52:54.192Z,61.58
2022-09-04T20:53:50.269Z,61.75
2022-09-04T20:57:18.431Z,61.88
2022-09-04T21:03:10.465Z,61.79
2022-09-04T21:03:22.838Z,61.80
2022-09-04T21:05:39.069Z,61.87
2022-09-04T21:08:13.663Z,62.09
2022-09-04T21:10:55.237Z,61.87
2022-09-04T21:13:35.461Z,61.88
2022-09-04T21:16:11.684Z,61.95
2022-09-04T21:18:45.887Z,62.13
2022-09-04T21:22:01.168Z,62.41
2022-09-04T21:24:39.909Z,62.10
2022-09-04T21:27:09.328Z,62.14
2022-09-04T21:29:59.294Z,62.50
2022-09-04T21:32:30.294Z,62.34
2022-09-04T21:35:15.654Z,62.43
2022-09-04T21:37:55.935Z,62.43
2022-09-04T21:40:50.390Z,62.72
2022-09-04T21:43:21.821Z,62.74
2022-09-04T21:46:13.825Z,62.48
2022-09-04T21:49:07.600Z,62.64
2022-09-04T21:51:51.549Z,62.46
2022-09-04T21:59:43.867Z,62.29
2022-09-04T22:02:37.963Z,62.42
2022-09-04T22:02:40.986Z,62.62
2022-09-04T22:04:19.525Z,62.80
2022-09-04T22:10:26.182Z,62.95
2022-09-04T22:13:29.475Z,63.00
2022-09-04T22:13:48.015Z,62.72
2022-09-04T22:16:15.670Z,62.79
2022-09-04T22:19:16.390Z,62.79
2022-09-04T22:22:04.111Z,62.74
2022-09-04T22:24:48.867Z,63.21
2022-09-04T22:27:37.623Z,62.99
2022-09-04T22:30:22.386Z,63.23
2022-09-04T22:32:58.115Z,63.03
2022-09-04T22:35:36.138Z,63.10
2022-09-04T22:38:08.838Z,62.99
2022-09-04T22:40:57.033Z,63.06
2022-09-04T22:49:14.208Z,63.20
2022-09-04T22:51:43.570Z,62.96
2022-09-04T22:54:39.276Z,63.19
2022-09-04T22:57:24.143Z,63.41
2022-09-04T23:00:26.129Z,63.50
2022-09-04T23:03:32.770Z,63.51
2022-09-04T23:07:36.755Z,63.28
2022-09-04T23:13:44.116Z,63.51
2022-09-04T23:14:01.391Z,63.41
2022-09-04T23:15:59.353Z,63.31
2022-09-04T23:21:26.331Z,63.35
2022-09-04T23:26:38.916Z,63.35
2022-09-04T23:26:50.902Z,63.28
2022-09-04T23:28:27.792Z,63.39
2022-09-04T23:31:27.292Z,63.34
2022-09-04T23:33:55.829Z,63.48
2022-09-04T23:36:49.959Z,63.60
2022-09-04T23:39:33.116Z,63.49
2022-09-04T23:42:12.555Z,63.57
2022-09-04T23:44:39.026Z,63.61
2022-09-04T23:47:48.214Z,63.75
2022-09-04T23:50:53.233Z,63.93
2022-09-04T23:53:56.959Z,64.01
2022-09-04T23:56:27.358Z,63.69
2022-09-04T23:59:22.263Z,63.55
